sensor_id;sensor_type;location;lat;lon;timestamp;P1;durP1;ratioP1;P2;durP2;ratioP2
20557;SDS011;10437;48.156;11.530;2024-01-07T00:01:51;18.83;;;9.50;;
20557;SDS011;10437;48.156;11.530;2024-01-07T00:04:18;15.47;;;9.10;;
20557;SDS011;10437;48.156;11.530;2024-01-07T00:06:46;17.00;;;9.10;;
20557;SDS011;10437;48.156;11.530;2024-01-07T00:09:13;15.73;;;8.77;;
20557;SDS011;10437;48.156;11.530;2024-01-07T00:11:42;16.80;;;9.07;;
20557;SDS011;10437;48.156;11.530;2024-01-07T00:14:09;17.53;;;9.00;;
20557;SDS011;10437;48.156;11.530;2024-01-07T00:16:36;18.77;;;9.43;;
20557;SDS011;10437;48.156;11.530;2024-01-07T00:19:03;18.23;;;8.93;;
20557;SDS011;10437;48.156;11.530;2024-01-07T00:21:30;19.37;;;9.70;;
20557;SDS011;10437;48.156;11.530;2024-01-07T00:23:57;19.17;;;9.50;;
20557;SDS011;10437;48.156;11.530;2024-01-07T00:26:25;17.00;;;8.50;;
20557;SDS011;10437;48.156;11.530;2024-01-07T00:28:53;18.37;;;9.67;;
20557;SDS011;10437;48.156;11.530;2024-01-07T00:31:20;18.87;;;9.70;;
20557;SDS011;10437;48.156;11.530;2024-01-07T00:33:47;17.90;;;9.20;;
20557;SDS011;10437;48.156;11.530;2024-01-07T00:36:15;18.10;;;9.33;;
20557;SDS011;10437;48.156;11.530;2024-01-07T00:38:42;16.63;;;8.57;;
20557;SDS011;10437;48.156;11.530;2024-01-07T00:41:09;17.83;;;9.07;;
20557;SDS011;10437;48.156;11.530;2024-01-07T00:43:37;20.20;;;9.50;;
20557;SDS011;10437;48.156;11.530;2024-01-07T00:46:07;18.53;;;9.03;;
20557;SDS011;10437;48.156;11.530;2024-01-07T00:48:34;18.67;;;9.97;;
20557;SDS011;10437;48.156;11.530;2024-01-07T00:51:01;18.63;;;9.83;;
20557;SDS011;10437;48.156;11.530;2024-01-07T00:53:28;16.73;;;9.30;;
20557;SDS011;10437;48.156;11.530;2024-01-07T00:55:55;17.80;;;9.33;;
20557;SDS011;10437;48.156;11.530;2024-01-07T00:58:23;16.57;;;9.00;;
20557;SDS011;10437;48.156;11.530;2024-01-07T01:00:50;18.57;;;9.27;;
20557;SDS011;10437;48.156;11.530;2024-01-07T01:03:20;18.60;;;9.70;;
20557;SDS011;10437;48.156;11.530;2024-01-07T01:05:47;18.17;;;9.33;;
20557;SDS011;10437;48.156;11.530;2024-01-07T01:08:15;17.57;;;9.10;;
20557;SDS011;10437;48.156;11.530;2024-01-07T01:10:42;18.53;;;9.30;;
20557;SDS011;10437;48.156;11.530;2024-01-07T01:13:09;17.60;;;9.07;;
20557;SDS011;10437;48.156;11.530;2024-01-07T01:15:36;16.57;;;9.17;;
20557;SDS011;10437;48.156;11.530;2024-01-07T01:18:04;16.23;;;8.97;;
20557;SDS011;10437;48.156;11.530;2024-01-07T01:20:33;18.93;;;9.47;;
20557;SDS011;10437;48.156;11.530;2024-01-07T01:23:00;16.03;;;8.90;;
20557;SDS011;10437;48.156;11.530;2024-01-07T01:25:27;19.90;;;8.90;;
20557;SDS011;10437;48.156;11.530;2024-01-07T01:27:55;19.30;;;10.23;;
20557;SDS011;10437;48.156;11.530;2024-01-07T01:30:22;17.97;;;10.17;;
20557;SDS011;10437;48.156;11.530;2024-01-07T01:32:49;21.47;;;10.67;;
20557;SDS011;10437;48.156;11.530;2024-01-07T01:35:16;16.13;;;9.07;;
20557;SDS011;10437;48.156;11.530;2024-01-07T01:37:45;18.10;;;9.27;;
20557;SDS011;10437;48.156;11.530;2024-01-07T01:40:12;16.53;;;9.43;;
20557;SDS011;10437;48.156;11.530;2024-01-07T01:42:42;17.27;;;9.00;;
20557;SDS011;10437;48.156;11.530;2024-01-07T01:45:10;15.53;;;8.43;;
20557;SDS011;10437;48.156;11.530;2024-01-07T01:47:37;16.53;;;8.87;;
20557;SDS011;10437;48.156;11.530;2024-01-07T01:50:05;15.63;;;8.10;;
20557;SDS011;10437;48.156;11.530;2024-01-07T01:52:33;15.77;;;8.43;;
20557;SDS011;10437;48.156;11.530;2024-01-07T01:55:03;16.93;;;8.67;;
20557;SDS011;10437;48.156;11.530;2024-01-07T01:57:32;16.33;;;8.47;;
20557;SDS011;10437;48.156;11.530;2024-01-07T02:00:01;14.37;;;8.43;;
20557;SDS011;10437;48.156;11.530;2024-01-07T02:02:30;13.83;;;8.17;;
20557;SDS011;10437;48.156;11.530;2024-01-07T02:04:59;15.60;;;7.83;;
20557;SDS011;10437;48.156;11.530;2024-01-07T02:07:27;14.50;;;8.10;;
20557;SDS011;10437;48.156;11.530;2024-01-07T02:09:55;15.70;;;8.87;;
20557;SDS011;10437;48.156;11.530;2024-01-07T02:12:23;14.93;;;8.37;;
20557;SDS011;10437;48.156;11.530;2024-01-07T02:14:50;16.07;;;8.00;;
20557;SDS011;10437;48.156;11.530;2024-01-07T02:17:18;14.67;;;7.43;;
20557;SDS011;10437;48.156;11.530;2024-01-07T02:19:46;14.23;;;7.97;;
20557;SDS011;10437;48.156;11.530;2024-01-07T02:22:13;14.43;;;7.60;;
20557;SDS011;10437;48.156;11.530;2024-01-07T02:24:41;13.40;;;7.93;;
20557;SDS011;10437;48.156;11.530;2024-01-07T02:27:08;14.77;;;8.17;;
20557;SDS011;10437;48.156;11.530;2024-01-07T02:29:35;15.00;;;8.20;;
20557;SDS011;10437;48.156;11.530;2024-01-07T02:32:03;15.50;;;7.97;;
20557;SDS011;10437;48.156;11.530;2024-01-07T02:34:30;12.33;;;7.37;;
20557;SDS011;10437;48.156;11.530;2024-01-07T02:36:58;12.87;;;7.60;;
20557;SDS011;10437;48.156;11.530;2024-01-07T02:39:25;14.50;;;7.87;;
20557;SDS011;10437;48.156;11.530;2024-01-07T02:41:53;14.80;;;8.27;;
20557;SDS011;10437;48.156;11.530;2024-01-07T02:44:21;14.63;;;8.60;;
20557;SDS011;10437;48.156;11.530;2024-01-07T02:46:48;13.67;;;7.33;;
20557;SDS011;10437;48.156;11.530;2024-01-07T02:49:15;14.10;;;8.00;;
20557;SDS011;10437;48.156;11.530;2024-01-07T02:51:42;15.20;;;8.57;;
20557;SDS011;10437;48.156;11.530;2024-01-07T02:54:14;13.97;;;7.77;;
20557;SDS011;10437;48.156;11.530;2024-01-07T02:56:41;12.33;;;6.63;;
20557;SDS011;10437;48.156;11.530;2024-01-07T02:59:10;12.47;;;7.23;;
20557;SDS011;10437;48.156;11.530;2024-01-07T03:01:37;14.57;;;8.27;;
20557;SDS011;10437;48.156;11.530;2024-01-07T03:04:06;13.00;;;7.43;;
20557;SDS011;10437;48.156;11.530;2024-01-07T03:06:33;13.90;;;7.07;;
20557;SDS011;10437;48.156;11.530;2024-01-07T03:09:00;14.13;;;7.50;;
20557;SDS011;10437;48.156;11.530;2024-01-07T03:11:28;12.03;;;7.00;;
20557;SDS011;10437;48.156;11.530;2024-01-07T03:13:56;13.97;;;7.33;;
20557;SDS011;10437;48.156;11.530;2024-01-07T03:16:25;11.70;;;6.37;;
20557;SDS011;10437;48.156;11.530;2024-01-07T03:18:52;14.60;;;8.33;;
20557;SDS011;10437;48.156;11.530;2024-01-07T03:21:20;13.53;;;7.43;;
20557;SDS011;10437;48.156;11.530;2024-01-07T03:23:47;14.03;;;8.07;;
20557;SDS011;10437;48.156;11.530;2024-01-07T03:26:16;15.60;;;8.53;;
20557;SDS011;10437;48.156;11.530;2024-01-07T03:28:44;15.57;;;8.00;;
20557;SDS011;10437;48.156;11.530;2024-01-07T03:31:12;12.60;;;7.53;;
20557;SDS011;10437;48.156;11.530;2024-01-07T03:33:42;11.87;;;7.30;;
20557;SDS011;10437;48.156;11.530;2024-01-07T03:36:09;12.67;;;7.70;;
20557;SDS011;10437;48.156;11.530;2024-01-07T03:38:38;13.67;;;7.33;;
20557;SDS011;10437;48.156;11.530;2024-01-07T03:41:05;14.77;;;7.87;;
20557;SDS011;10437;48.156;11.530;2024-01-07T03:43:33;13.10;;;7.37;;
20557;SDS011;10437;48.156;11.530;2024-01-07T03:46:00;15.90;;;7.93;;
20557;SDS011;10437;48.156;11.530;2024-01-07T03:48:27;15.37;;;7.83;;
20557;SDS011;10437;48.156;11.530;2024-01-07T03:50:56;14.73;;;8.13;;
20557;SDS011;10437;48.156;11.530;2024-01-07T03:53:23;13.70;;;7.83;;
20557;SDS011;10437;48.156;11.530;2024-01-07T03:55:51;12.93;;;7.30;;
20557;SDS011;10437;48.156;11.530;2024-01-07T03:58:18;15.93;;;7.90;;
20557;SDS011;10437;48.156;11.530;2024-01-07T04:00:45;15.63;;;8.10;;
20557;SDS011;10437;48.156;11.530;2024-01-07T04:03:12;15.83;;;8.23;;
20557;SDS011;10437;48.156;11.530;2024-01-07T04:05:40;14.20;;;7.80;;
20557;SDS011;10437;48.156;11.530;2024-01-07T04:08:10;16.10;;;8.20;;
20557;SDS011;10437;48.156;11.530;2024-01-07T04:10:37;14.17;;;7.93;;
20557;SDS011;10437;48.156;11.530;2024-01-07T04:13:04;14.17;;;8.30;;
20557;SDS011;10437;48.156;11.530;2024-01-07T04:15:32;16.73;;;8.43;;
20557;SDS011;10437;48.156;11.530;2024-01-07T04:18:00;14.63;;;8.30;;
20557;SDS011;10437;48.156;11.530;2024-01-07T04:20:28;14.37;;;8.20;;
20557;SDS011;10437;48.156;11.530;2024-01-07T04:22:55;14.20;;;7.97;;
20557;SDS011;10437;48.156;11.530;2024-01-07T04:25:24;15.83;;;9.13;;
20557;SDS011;10437;48.156;11.530;2024-01-07T04:27:51;14.17;;;8.13;;
20557;SDS011;10437;48.156;11.530;2024-01-07T04:30:19;15.23;;;8.70;;
20557;SDS011;10437;48.156;11.530;2024-01-07T04:32:46;14.57;;;7.83;;
20557;SDS011;10437;48.156;11.530;2024-01-07T04:35:13;15.57;;;8.40;;
20557;SDS011;10437;48.156;11.530;2024-01-07T04:37:41;15.03;;;8.23;;
20557;SDS011;10437;48.156;11.530;2024-01-07T04:40:09;17.90;;;9.30;;
20557;SDS011;10437;48.156;11.530;2024-01-07T04:42:38;14.13;;;8.23;;
20557;SDS011;10437;48.156;11.530;2024-01-07T04:45:05;13.77;;;8.10;;
20557;SDS011;10437;48.156;11.530;2024-01-07T04:47:33;13.53;;;8.00;;
20557;SDS011;10437;48.156;11.530;2024-01-07T04:50:00;15.40;;;8.73;;
20557;SDS011;10437;48.156;11.530;2024-01-07T04:52:27;15.27;;;8.40;;
20557;SDS011;10437;48.156;11.530;2024-01-07T04:54:55;15.93;;;8.50;;
20557;SDS011;10437;48.156;11.530;2024-01-07T04:57:22;15.20;;;7.97;;
20557;SDS011;10437;48.156;11.530;2024-01-07T04:59:51;12.97;;;7.43;;
20557;SDS011;10437;48.156;11.530;2024-01-07T05:02:18;14.00;;;8.03;;
20557;SDS011;10437;48.156;11.530;2024-01-07T05:04:45;14.97;;;8.57;;
20557;SDS011;10437;48.156;11.530;2024-01-07T05:07:12;15.30;;;8.33;;
20557;SDS011;10437;48.156;11.530;2024-01-07T05:09:39;14.33;;;8.23;;
20557;SDS011;10437;48.156;11.530;2024-01-07T05:12:07;14.67;;;8.27;;
20557;SDS011;10437;48.156;11.530;2024-01-07T05:14:34;14.17;;;7.77;;
20557;SDS011;10437;48.156;11.530;2024-01-07T05:17:03;14.83;;;8.60;;
20557;SDS011;10437;48.156;11.530;2024-01-07T05:19:31;15.27;;;8.10;;
20557;SDS011;10437;48.156;11.530;2024-01-07T05:21:58;14.53;;;8.00;;
20557;SDS011;10437;48.156;11.530;2024-01-07T05:24:25;15.50;;;8.30;;
20557;SDS011;10437;48.156;11.530;2024-01-07T05:26:53;15.67;;;8.27;;
20557;SDS011;10437;48.156;11.530;2024-01-07T05:29:20;13.17;;;7.83;;
20557;SDS011;10437;48.156;11.530;2024-01-07T05:31:48;13.47;;;7.23;;
20557;SDS011;10437;48.156;11.530;2024-01-07T05:34:16;14.60;;;8.47;;
20557;SDS011;10437;48.156;11.530;2024-01-07T05:36:43;13.83;;;7.90;;
20557;SDS011;10437;48.156;11.530;2024-01-07T05:39:10;13.87;;;7.57;;
20557;SDS011;10437;48.156;11.530;2024-01-07T05:41:38;15.37;;;8.50;;
20557;SDS011;10437;48.156;11.530;2024-01-07T05:44:06;13.50;;;7.50;;
20557;SDS011;10437;48.156;11.530;2024-01-07T05:46:33;13.80;;;7.60;;
20557;SDS011;10437;48.156;11.530;2024-01-07T05:49:01;13.70;;;7.27;;
20557;SDS011;10437;48.156;11.530;2024-01-07T05:51:29;15.13;;;8.67;;
20557;SDS011;10437;48.156;11.530;2024-01-07T05:53:56;13.50;;;7.63;;
20557;SDS011;10437;48.156;11.530;2024-01-07T05:56:23;14.03;;;7.40;;
20557;SDS011;10437;48.156;11.530;2024-01-07T05:58:51;12.53;;;6.97;;
20557;SDS011;10437;48.156;11.530;2024-01-07T06:01:18;14.23;;;7.20;;
20557;SDS011;10437;48.156;11.530;2024-01-07T06:03:46;14.83;;;6.97;;
20557;SDS011;10437;48.156;11.530;2024-01-07T06:06:14;10.53;;;6.03;;
20557;SDS011;10437;48.156;11.530;2024-01-07T06:08:43;12.60;;;7.10;;
20557;SDS011;10437;48.156;11.530;2024-01-07T06:11:10;11.83;;;7.10;;
20557;SDS011;10437;48.156;11.530;2024-01-07T06:13:43;13.07;;;6.70;;
20557;SDS011;10437;48.156;11.530;2024-01-07T06:16:10;12.43;;;6.70;;
20557;SDS011;10437;48.156;11.530;2024-01-07T06:18:38;15.77;;;7.07;;
20557;SDS011;10437;48.156;11.530;2024-01-07T06:21:05;10.93;;;6.20;;
20557;SDS011;10437;48.156;11.530;2024-01-07T06:23:32;10.30;;;5.90;;
20557;SDS011;10437;48.156;11.530;2024-01-07T06:26:04;12.90;;;6.47;;
20557;SDS011;10437;48.156;11.530;2024-01-07T06:28:31;11.10;;;6.07;;
20557;SDS011;10437;48.156;11.530;2024-01-07T06:30:58;8.20;;;5.33;;
20557;SDS011;10437;48.156;11.530;2024-01-07T06:33:26;10.03;;;5.87;;
20557;SDS011;10437;48.156;11.530;2024-01-07T06:35:53;10.17;;;5.80;;
20557;SDS011;10437;48.156;11.530;2024-01-07T06:38:20;9.23;;;5.40;;
20557;SDS011;10437;48.156;11.530;2024-01-07T06:40:48;11.10;;;6.20;;
20557;SDS011;10437;48.156;11.530;2024-01-07T06:43:17;8.33;;;4.70;;
20557;SDS011;10437;48.156;11.530;2024-01-07T06:45:44;9.50;;;5.67;;
20557;SDS011;10437;48.156;11.530;2024-01-07T06:48:12;10.23;;;5.57;;
20557;SDS011;10437;48.156;11.530;2024-01-07T06:50:39;11.80;;;5.33;;
20557;SDS011;10437;48.156;11.530;2024-01-07T06:53:06;8.87;;;4.80;;
20557;SDS011;10437;48.156;11.530;2024-01-07T06:55:33;10.37;;;5.57;;
20557;SDS011;10437;48.156;11.530;2024-01-07T06:58:00;10.20;;;5.90;;
20557;SDS011;10437;48.156;11.530;2024-01-07T07:00:29;9.43;;;5.57;;
20557;SDS011;10437;48.156;11.530;2024-01-07T07:02:56;10.07;;;5.77;;
20557;SDS011;10437;48.156;11.530;2024-01-07T07:05:23;10.00;;;5.30;;
20557;SDS011;10437;48.156;11.530;2024-01-07T07:07:50;10.17;;;5.33;;
20557;SDS011;10437;48.156;11.530;2024-01-07T07:10:18;9.40;;;5.20;;
20557;SDS011;10437;48.156;11.530;2024-01-07T07:12:45;10.53;;;5.63;;
20557;SDS011;10437;48.156;11.530;2024-01-07T07:15:12;8.60;;;5.67;;
20557;SDS011;10437;48.156;11.530;2024-01-07T07:17:41;8.67;;;5.43;;
20557;SDS011;10437;48.156;11.530;2024-01-07T07:20:08;12.97;;;5.43;;
20557;SDS011;10437;48.156;11.530;2024-01-07T07:22:35;9.23;;;5.17;;
20557;SDS011;10437;48.156;11.530;2024-01-07T07:25:03;10.80;;;5.97;;
20557;SDS011;10437;48.156;11.530;2024-01-07T07:27:30;11.20;;;5.80;;
20557;SDS011;10437;48.156;11.530;2024-01-07T07:29:57;12.80;;;6.43;;
20557;SDS011;10437;48.156;11.530;2024-01-07T07:32:25;10.30;;;5.50;;
20557;SDS011;10437;48.156;11.530;2024-01-07T07:34:53;10.73;;;5.90;;
20557;SDS011;10437;48.156;11.530;2024-01-07T07:37:20;10.40;;;5.87;;
20557;SDS011;10437;48.156;11.530;2024-01-07T07:39:47;12.60;;;6.03;;
20557;SDS011;10437;48.156;11.530;2024-01-07T07:42:15;11.67;;;5.97;;
20557;SDS011;10437;48.156;11.530;2024-01-07T07:44:42;11.47;;;6.20;;
20557;SDS011;10437;48.156;11.530;2024-01-07T07:47:09;11.17;;;5.93;;
20557;SDS011;10437;48.156;11.530;2024-01-07T07:49:37;13.77;;;6.73;;
20557;SDS011;10437;48.156;11.530;2024-01-07T07:52:07;11.43;;;6.07;;
20557;SDS011;10437;48.156;11.530;2024-01-07T07:54:36;12.53;;;5.93;;
20557;SDS011;10437;48.156;11.530;2024-01-07T07:57:03;11.70;;;5.67;;
20557;SDS011;10437;48.156;11.530;2024-01-07T07:59:30;11.57;;;5.83;;
20557;SDS011;10437;48.156;11.530;2024-01-07T08:01:57;13.47;;;6.83;;
20557;SDS011;10437;48.156;11.530;2024-01-07T08:04:25;12.63;;;6.00;;
20557;SDS011;10437;48.156;11.530;2024-01-07T08:06:52;13.23;;;5.90;;
20557;SDS011;10437;48.156;11.530;2024-01-07T08:09:22;11.30;;;6.13;;
20557;SDS011;10437;48.156;11.530;2024-01-07T08:11:50;12.33;;;6.30;;
20557;SDS011;10437;48.156;11.530;2024-01-07T08:14:17;13.30;;;6.07;;
20557;SDS011;10437;48.156;11.530;2024-01-07T08:16:44;13.30;;;6.43;;
20557;SDS011;10437;48.156;11.530;2024-01-07T08:19:11;14.50;;;6.90;;
20557;SDS011;10437;48.156;11.530;2024-01-07T08:21:39;14.13;;;6.67;;
20557;SDS011;10437;48.156;11.530;2024-01-07T08:24:06;11.07;;;5.67;;
20557;SDS011;10437;48.156;11.530;2024-01-07T08:26:36;10.87;;;5.67;;
20557;SDS011;10437;48.156;11.530;2024-01-07T08:29:03;13.03;;;6.40;;
20557;SDS011;10437;48.156;11.530;2024-01-07T08:31:31;12.53;;;5.87;;
20557;SDS011;10437;48.156;11.530;2024-01-07T08:33:58;12.33;;;5.80;;
20557;SDS011;10437;48.156;11.530;2024-01-07T08:36:26;11.77;;;6.30;;
20557;SDS011;10437;48.156;11.530;2024-01-07T08:38:53;11.23;;;5.90;;
20557;SDS011;10437;48.156;11.530;2024-01-07T08:41:20;13.90;;;6.83;;
20557;SDS011;10437;48.156;11.530;2024-01-07T08:43:49;13.17;;;6.80;;
20557;SDS011;10437;48.156;11.530;2024-01-07T08:46:16;11.90;;;6.10;;
20557;SDS011;10437;48.156;11.530;2024-01-07T08:48:44;12.93;;;6.00;;
20557;SDS011;10437;48.156;11.530;2024-01-07T08:51:12;12.57;;;6.53;;
20557;SDS011;10437;48.156;11.530;2024-01-07T08:57:00;13.40;;;6.83;;
20557;SDS011;10437;48.156;11.530;2024-01-07T08:59:28;12.90;;;6.30;;
20557;SDS011;10437;48.156;11.530;2024-01-07T09:01:56;15.00;;;6.53;;
20557;SDS011;10437;48.156;11.530;2024-01-07T09:04:23;14.43;;;7.33;;
20557;SDS011;10437;48.156;11.530;2024-01-07T09:06:50;13.13;;;6.93;;
20557;SDS011;10437;48.156;11.530;2024-01-07T09:09:17;16.13;;;7.10;;
20557;SDS011;10437;48.156;11.530;2024-01-07T09:11:44;14.20;;;7.17;;
20557;SDS011;10437;48.156;11.530;2024-01-07T09:14:11;16.07;;;7.30;;
20557;SDS011;10437;48.156;11.530;2024-01-07T09:16:41;13.70;;;6.90;;
20557;SDS011;10437;48.156;11.530;2024-01-07T09:19:07;13.93;;;7.10;;
20557;SDS011;10437;48.156;11.530;2024-01-07T09:21:35;14.53;;;7.67;;
20557;SDS011;10437;48.156;11.530;2024-01-07T09:24:02;17.37;;;7.70;;
20557;SDS011;10437;48.156;11.530;2024-01-07T09:26:29;16.53;;;7.80;;
20557;SDS011;10437;48.156;11.530;2024-01-07T09:28:57;15.73;;;7.30;;
20557;SDS011;10437;48.156;11.530;2024-01-07T09:31:24;16.63;;;7.30;;
20557;SDS011;10437;48.156;11.530;2024-01-07T09:33:52;15.47;;;7.27;;
20557;SDS011;10437;48.156;11.530;2024-01-07T09:36:19;16.23;;;7.50;;
20557;SDS011;10437;48.156;11.530;2024-01-07T09:38:47;15.83;;;8.03;;
20557;SDS011;10437;48.156;11.530;2024-01-07T09:41:14;13.63;;;7.40;;
20557;SDS011;10437;48.156;11.530;2024-01-07T09:43:41;17.10;;;8.43;;
20557;SDS011;10437;48.156;11.530;2024-01-07T09:46:08;15.47;;;7.37;;
20557;SDS011;10437;48.156;11.530;2024-01-07T09:48:36;20.40;;;8.50;;
20557;SDS011;10437;48.156;11.530;2024-01-07T09:51:04;17.43;;;7.60;;
20557;SDS011;10437;48.156;11.530;2024-01-07T09:53:35;14.70;;;7.77;;
20557;SDS011;10437;48.156;11.530;2024-01-07T09:56:07;14.97;;;7.67;;
20557;SDS011;10437;48.156;11.530;2024-01-07T09:58:38;19.60;;;8.40;;
20557;SDS011;10437;48.156;11.530;2024-01-07T10:01:05;16.70;;;7.60;;
20557;SDS011;10437;48.156;11.530;2024-01-07T10:03:32;16.90;;;8.10;;
20557;SDS011;10437;48.156;11.530;2024-01-07T10:05:59;13.90;;;6.77;;
20557;SDS011;10437;48.156;11.530;2024-01-07T10:08:28;16.00;;;7.93;;
20557;SDS011;10437;48.156;11.530;2024-01-07T10:10:55;17.00;;;8.33;;
20557;SDS011;10437;48.156;11.530;2024-01-07T10:13:23;15.40;;;7.47;;
20557;SDS011;10437;48.156;11.530;2024-01-07T10:15:50;14.40;;;7.37;;
20557;SDS011;10437;48.156;11.530;2024-01-07T10:18:18;18.23;;;7.63;;
20557;SDS011;10437;48.156;11.530;2024-01-07T10:20:45;15.40;;;7.27;;
20557;SDS011;10437;48.156;11.530;2024-01-07T10:23:12;17.63;;;7.07;;
20557;SDS011;10437;48.156;11.530;2024-01-07T10:25:41;16.83;;;7.47;;
20557;SDS011;10437;48.156;11.530;2024-01-07T10:28:08;18.20;;;7.70;;
20557;SDS011;10437;48.156;11.530;2024-01-07T10:30:38;15.10;;;7.97;;
20557;SDS011;10437;48.156;11.530;2024-01-07T10:33:06;14.83;;;6.83;;
20557;SDS011;10437;48.156;11.530;2024-01-07T10:35:34;15.87;;;7.60;;
20557;SDS011;10437;48.156;11.530;2024-01-07T10:38:01;17.03;;;7.57;;
20557;SDS011;10437;48.156;11.530;2024-01-07T10:40:30;14.50;;;7.53;;
20557;SDS011;10437;48.156;11.530;2024-01-07T10:42:59;14.57;;;7.23;;
20557;SDS011;10437;48.156;11.530;2024-01-07T10:45:26;14.60;;;7.30;;
20557;SDS011;10437;48.156;11.530;2024-01-07T10:47:54;15.07;;;7.03;;
20557;SDS011;10437;48.156;11.530;2024-01-07T10:50:24;15.83;;;7.43;;
20557;SDS011;10437;48.156;11.530;2024-01-07T10:52:57;16.10;;;7.37;;
20557;SDS011;10437;48.156;11.530;2024-01-07T10:55:28;16.93;;;7.60;;
20557;SDS011;10437;48.156;11.530;2024-01-07T10:58:02;14.23;;;6.73;;
20557;SDS011;10437;48.156;11.530;2024-01-07T11:00:30;15.53;;;6.80;;
20557;SDS011;10437;48.156;11.530;2024-01-07T11:03:02;15.73;;;6.93;;
20557;SDS011;10437;48.156;11.530;2024-01-07T11:05:33;15.10;;;6.30;;
20557;SDS011;10437;48.156;11.530;2024-01-07T11:08:06;15.20;;;7.17;;
20557;SDS011;10437;48.156;11.530;2024-01-07T11:10:41;15.27;;;6.67;;
20557;SDS011;10437;48.156;11.530;2024-01-07T11:15:57;14.57;;;6.93;;
20557;SDS011;10437;48.156;11.530;2024-01-07T11:18:26;12.20;;;6.60;;
20557;SDS011;10437;48.156;11.530;2024-01-07T11:20:57;12.77;;;6.47;;
20557;SDS011;10437;48.156;11.530;2024-01-07T11:23:26;12.70;;;6.27;;
20557;SDS011;10437;48.156;11.530;2024-01-07T11:25:56;10.30;;;5.13;;
20557;SDS011;10437;48.156;11.530;2024-01-07T11:28:42;14.50;;;6.17;;
20557;SDS011;10437;48.156;11.530;2024-01-07T11:31:11;11.83;;;5.87;;
20557;SDS011;10437;48.156;11.530;2024-01-07T11:33:38;11.03;;;6.20;;
20557;SDS011;10437;48.156;11.530;2024-01-07T11:36:05;13.17;;;7.07;;
20557;SDS011;10437;48.156;11.530;2024-01-07T11:38:33;13.30;;;5.90;;
20557;SDS011;10437;48.156;11.530;2024-01-07T11:41:02;11.60;;;6.13;;
20557;SDS011;10437;48.156;11.530;2024-01-07T11:43:30;10.77;;;5.60;;
20557;SDS011;10437;48.156;11.530;2024-01-07T11:45:59;11.20;;;5.43;;
20557;SDS011;10437;48.156;11.530;2024-01-07T11:48:27;11.97;;;5.80;;
20557;SDS011;10437;48.156;11.530;2024-01-07T11:50:54;13.87;;;6.37;;
20557;SDS011;10437;48.156;11.530;2024-01-07T11:53:21;10.73;;;5.23;;
20557;SDS011;10437;48.156;11.530;2024-01-07T11:55:49;9.87;;;5.67;;
20557;SDS011;10437;48.156;11.530;2024-01-07T11:58:16;12.13;;;5.50;;
20557;SDS011;10437;48.156;11.530;2024-01-07T12:00:43;9.30;;;5.20;;
20557;SDS011;10437;48.156;11.530;2024-01-07T12:03:10;9.43;;;5.50;;
20557;SDS011;10437;48.156;11.530;2024-01-07T12:05:39;10.23;;;5.53;;
20557;SDS011;10437;48.156;11.530;2024-01-07T12:08:06;11.90;;;5.43;;
20557;SDS011;10437;48.156;11.530;2024-01-07T12:10:33;11.33;;;5.17;;
20557;SDS011;10437;48.156;11.530;2024-01-07T12:13:01;9.77;;;4.93;;
20557;SDS011;10437;48.156;11.530;2024-01-07T12:15:29;10.63;;;5.53;;
20557;SDS011;10437;48.156;11.530;2024-01-07T12:17:56;11.10;;;5.50;;
20557;SDS011;10437;48.156;11.530;2024-01-07T12:20:25;11.53;;;5.63;;
20557;SDS011;10437;48.156;11.530;2024-01-07T12:22:57;10.50;;;5.50;;
20557;SDS011;10437;48.156;11.530;2024-01-07T12:25:24;9.23;;;4.93;;
20557;SDS011;10437;48.156;11.530;2024-01-07T12:27:51;9.40;;;5.27;;
20557;SDS011;10437;48.156;11.530;2024-01-07T12:30:19;10.80;;;6.10;;
20557;SDS011;10437;48.156;11.530;2024-01-07T12:32:47;8.80;;;5.13;;
20557;SDS011;10437;48.156;11.530;2024-01-07T12:35:14;10.83;;;5.57;;
20557;SDS011;10437;48.156;11.530;2024-01-07T12:37:42;9.57;;;5.20;;
20557;SDS011;10437;48.156;11.530;2024-01-07T12:40:11;12.23;;;6.00;;
20557;SDS011;10437;48.156;11.530;2024-01-07T12:42:39;10.93;;;5.87;;
20557;SDS011;10437;48.156;11.530;2024-01-07T12:45:10;10.90;;;5.40;;
20557;SDS011;10437;48.156;11.530;2024-01-07T12:47:38;11.80;;;5.60;;
20557;SDS011;10437;48.156;11.530;2024-01-07T12:50:06;10.97;;;5.70;;
20557;SDS011;10437;48.156;11.530;2024-01-07T12:52:35;14.83;;;6.23;;
20557;SDS011;10437;48.156;11.530;2024-01-07T12:55:02;10.53;;;5.80;;
20557;SDS011;10437;48.156;11.530;2024-01-07T12:57:31;12.13;;;6.50;;
20557;SDS011;10437;48.156;11.530;2024-01-07T12:59:58;11.70;;;5.97;;
20557;SDS011;10437;48.156;11.530;2024-01-07T13:02:25;11.20;;;5.60;;
20557;SDS011;10437;48.156;11.530;2024-01-07T13:04:53;13.30;;;6.85;;
20557;SDS011;10437;48.156;11.530;2024-01-07T13:07:20;10.13;;;5.60;;
20557;SDS011;10437;48.156;11.530;2024-01-07T13:09:48;10.53;;;5.93;;
20557;SDS011;10437;48.156;11.530;2024-01-07T13:12:16;9.13;;;6.17;;
20557;SDS011;10437;48.156;11.530;2024-01-07T13:14:45;12.33;;;5.90;;
20557;SDS011;10437;48.156;11.530;2024-01-07T13:17:13;11.27;;;6.37;;
20557;SDS011;10437;48.156;11.530;2024-01-07T13:19:40;12.43;;;6.20;;
20557;SDS011;10437;48.156;11.530;2024-01-07T13:22:07;9.83;;;5.23;;
20557;SDS011;10437;48.156;11.530;2024-01-07T13:24:36;9.90;;;5.87;;
20557;SDS011;10437;48.156;11.530;2024-01-07T13:27:03;14.03;;;5.67;;
20557;SDS011;10437;48.156;11.530;2024-01-07T13:29:30;14.27;;;6.70;;
20557;SDS011;10437;48.156;11.530;2024-01-07T13:31:59;10.07;;;6.13;;
20557;SDS011;10437;48.156;11.530;2024-01-07T13:34:26;11.57;;;6.23;;
20557;SDS011;10437;48.156;11.530;2024-01-07T13:36:53;11.40;;;6.20;;
20557;SDS011;10437;48.156;11.530;2024-01-07T13:39:21;9.57;;;6.10;;
20557;SDS011;10437;48.156;11.530;2024-01-07T13:41:48;12.30;;;6.47;;
20557;SDS011;10437;48.156;11.530;2024-01-07T13:44:15;14.03;;;6.43;;
20557;SDS011;10437;48.156;11.530;2024-01-07T13:46:44;11.27;;;5.77;;
20557;SDS011;10437;48.156;11.530;2024-01-07T13:49:13;16.27;;;6.33;;
20557;SDS011;10437;48.156;11.530;2024-01-07T13:51:40;12.23;;;6.47;;
20557;SDS011;10437;48.156;11.530;2024-01-07T13:54:07;12.80;;;6.33;;
20557;SDS011;10437;48.156;11.530;2024-01-07T13:56:38;12.70;;;6.37;;
20557;SDS011;10437;48.156;11.530;2024-01-07T13:59:07;11.50;;;6.83;;
20557;SDS011;10437;48.156;11.530;2024-01-07T14:01:34;12.07;;;6.50;;
20557;SDS011;10437;48.156;11.530;2024-01-07T14:04:02;14.20;;;6.63;;
20557;SDS011;10437;48.156;11.530;2024-01-07T14:06:30;11.93;;;6.47;;
20557;SDS011;10437;48.156;11.530;2024-01-07T14:08:57;11.80;;;6.33;;
20557;SDS011;10437;48.156;11.530;2024-01-07T14:11:25;13.03;;;6.60;;
20557;SDS011;10437;48.156;11.530;2024-01-07T14:13:53;11.40;;;6.00;;
20557;SDS011;10437;48.156;11.530;2024-01-07T14:16:20;11.00;;;6.30;;
20557;SDS011;10437;48.156;11.530;2024-01-07T14:18:49;11.33;;;5.87;;
20557;SDS011;10437;48.156;11.530;2024-01-07T14:21:16;11.47;;;6.23;;
20557;SDS011;10437;48.156;11.530;2024-01-07T14:23:44;12.00;;;6.10;;
20557;SDS011;10437;48.156;11.530;2024-01-07T14:26:11;11.97;;;6.33;;
20557;SDS011;10437;48.156;11.530;2024-01-07T14:28:40;11.97;;;5.87;;
20557;SDS011;10437;48.156;11.530;2024-01-07T14:31:07;12.67;;;6.10;;
20557;SDS011;10437;48.156;11.530;2024-01-07T14:33:34;12.40;;;6.60;;